Desert Aire, WA

12:25 AM PST on February 27, 2015 (GMT -0800)
APRSWXNET Desert Aire WA US | Change Station
CLOSE
Current Station
Personal Weather Station
Location: Mattawa, WA
Elevation: 538 ft
Nearby Weather Stations

Elev 538 ft 46.68 °N, 119.92 °W | Updated 29 minutes ago

Overcast
Overcast
44 °F
Feels Like 44 °F
N
0
Wind Variable Wind from East
Gusts 0.0 mph

Today
High -- | Low -- °F
--% Chance of Precip.
Yesterday
High -- | Low -- °F
Precip. -- in
6:43 AM 5:42 PM
Waxing Gibbous, 66% visible
Pressure 29.84 in
Visibility 10.0 miles
Clouds Overcast 3300 ft
Windchill 44 °F
Dew Point 41 °F
Humidity 90%
Rainfall 0.02 in
Snow Depth Not available.
UV 0 out of 12
Pollen 5.30 out of 12
Air Quality Not available.
Flu Activity Not available.
METAR K1YT 270756Z AUTO 02003KT 10SM OVC033 06/04 A2984 RMK AO2 SLPNO T00640044 401360017

More Conditions Fewer Conditions

Pressure 29.84 in
Visibility 10.0 miles
Clouds Overcast 3300 ft
Windchill 44 °F
Dew Point 41 °F
Humidity 90%
Rainfall 0.02 in
Snow Depth Not available.
UV 0 out of 12
Pollen 5.30 out of 12
Air Quality Not available.
Flu Activity Not available.
METAR K1YT 270756Z AUTO 02003KT 10SM OVC033 06/04 A2984 RMK AO2 SLPNO T00640044 401360017

More Conditions Fewer Conditions

10-Day Weather Forecast

Almanac

Astronomy

Feb. 27, 2015 Rise Set
Actual Time
Civil Twilight
Nautical Twilight
Astronomical Twilight
Moon
Length of Visible Light
Length of Day
Tomorrow will be .
, % of the Moon is Illuminated

Today's Extremes

State Highs State Lows

Community

WunderPhotos

Upload Photos

1,800,649 photos uploaded!

WunderBlogs® & News

Nearby

Air Quality

  Air Quality AQ Index Pollutant
Not available.

Snow Depth

Station Depth Elevation

Earthquake Activity

City Distance Mag. Time & Date
Minimum magnitude displayed is 2.5.

Coastal Water Temperatures

Place Temperature

Nearby Weather Stations